createdAt,value
2023-05-23T00:00:15.520Z,7.50
2023-05-23T00:02:43.820Z,7.30
2023-05-23T00:05:10.700Z,7.25
2023-05-23T00:07:37.516Z,6.78
2023-05-23T00:10:04.898Z,6.85
2023-05-23T00:12:31.617Z,6.75
2023-05-23T00:14:58.334Z,6.90
2023-05-23T00:17:28.102Z,6.72
2023-05-23T00:19:56.104Z,6.93
2023-05-23T00:22:23.075Z,6.25
2023-05-23T00:24:49.849Z,6.50
2023-05-23T00:27:16.587Z,6.45
2023-05-23T00:29:43.291Z,6.55
2023-05-23T00:32:10.061Z,6.65
2023-05-23T00:34:37.710Z,6.65
2023-05-23T00:37:05.147Z,5.95
2023-05-23T00:39:31.927Z,7.40
2023-05-23T00:41:58.653Z,6.47
2023-05-23T00:44:26.201Z,6.28
2023-05-23T00:46:56.294Z,7.25
2023-05-23T00:49:24.354Z,7.30
2023-05-23T00:51:52.424Z,6.75
2023-05-23T00:54:24.442Z,7.22
2023-05-23T00:56:51.429Z,7.45
2023-05-23T00:59:18.432Z,7.03
2023-05-23T01:01:46.900Z,7.70
2023-05-23T01:04:14.781Z,6.82
2023-05-23T01:06:41.574Z,7.93
2023-05-23T01:09:09.679Z,7.97
2023-05-23T01:12:27.944Z,7.55
2023-05-23T01:15:06.523Z,7.50
2023-05-23T01:17:55.148Z,8.07
2023-05-23T01:20:24.173Z,8.52
2023-05-23T01:23:02.578Z,8.45
2023-05-23T01:26:13.223Z,8.38
2023-05-23T01:28:47.029Z,8.77
2023-05-23T01:31:15.919Z,7.90
2023-05-23T01:33:43.853Z,9.30
2023-05-23T01:36:14.273Z,9.30
2023-05-23T01:38:41.000Z,9.77
2023-05-23T01:41:07.756Z,9.18
2023-05-23T01:43:34.622Z,8.73
2023-05-23T01:46:02.212Z,8.57
2023-05-23T01:48:30.271Z,8.38
2023-05-23T01:50:58.863Z,8.43
2023-05-23T01:53:26.825Z,8.73
2023-05-23T01:55:54.192Z,8.23
2023-05-23T01:58:22.008Z,8.40
2023-05-23T02:00:48.914Z,7.80
2023-05-23T02:03:16.105Z,8.23
2023-05-23T02:05:43.314Z,8.77
2023-05-23T02:08:10.175Z,8.68
2023-05-23T02:10:38.218Z,8.85
2023-05-23T02:13:04.913Z,9.05
2023-05-23T02:15:31.708Z,9.57
2023-05-23T02:17:58.594Z,9.52
2023-05-23T02:20:25.921Z,9.20
2023-05-23T02:22:52.734Z,8.82
2023-05-23T02:25:19.569Z,8.90
2023-05-23T02:27:46.277Z,8.55
2023-05-23T02:30:13.467Z,8.57
2023-05-23T02:32:40.312Z,9.43
2023-05-23T02:35:09.033Z,8.77
2023-05-23T02:37:35.840Z,9.20
2023-05-23T02:40:07.530Z,9.18
2023-05-23T02:42:34.541Z,9.13
2023-05-23T02:45:01.697Z,8.48
2023-05-23T02:47:28.490Z,8.85
2023-05-23T02:49:55.389Z,9.00
2023-05-23T02:52:22.168Z,8.02
2023-05-23T02:54:48.999Z,9.30
2023-05-23T02:57:15.817Z,8.65
2023-05-23T02:59:42.695Z,8.73
2023-05-23T03:02:09.619Z,9.05
2023-05-23T03:04:38.149Z,9.38
2023-05-23T03:07:11.537Z,9.23
2023-05-23T03:09:44.081Z,10.20
2023-05-23T03:12:11.055Z,9.88
2023-05-23T03:14:38.064Z,9.88
2023-05-23T03:17:05.196Z,9.98
2023-05-23T03:19:34.155Z,10.15
2023-05-23T03:22:02.537Z,10.70
2023-05-23T03:24:29.438Z,10.52
2023-05-23T03:26:56.301Z,10.40
2023-05-23T03:29:23.905Z,9.77
2023-05-23T03:31:50.872Z,10.10
2023-05-23T03:34:18.015Z,10.00
2023-05-23T03:36:44.897Z,10.02
2023-05-23T03:39:12.435Z,9.85
2023-05-23T03:41:39.280Z,12.30
2023-05-23T03:44:06.363Z,12.35
2023-05-23T03:46:33.318Z,11.27
2023-05-23T03:49:00.452Z,11.13
2023-05-23T03:51:28.270Z,9.65
2023-05-23T03:53:55.390Z,25.88
2023-05-23T03:56:23.547Z,25.20
2023-05-23T03:58:50.952Z,13.80
2023-05-23T04:01:17.965Z,11.82
2023-05-23T04:03:47.085Z,10.20
2023-05-23T04:06:17.265Z,9.90
2023-05-23T04:08:46.293Z,10.43
2023-05-23T04:11:13.166Z,10.90
2023-05-23T04:13:42.786Z,11.27
2023-05-23T04:16:11.058Z,9.73
2023-05-23T04:18:39.303Z,9.73
2023-05-23T04:21:07.345Z,10.98
2023-05-23T04:23:38.492Z,10.75
2023-05-23T04:26:06.777Z,9.75
2023-05-23T04:28:35.923Z,9.77
2023-05-23T04:31:03.234Z,9.60
2023-05-23T04:33:34.234Z,9.75
2023-05-23T04:36:02.629Z,10.18
2023-05-23T04:38:29.415Z,9.57
2023-05-23T04:40:58.006Z,11.15
2023-05-23T04:43:46.040Z,11.60
2023-05-23T04:46:26.849Z,12.40
2023-05-23T04:49:17.103Z,12.20
2023-05-23T04:51:44.187Z,13.50
2023-05-23T04:54:21.495Z,13.80
2023-05-23T04:56:48.210Z,11.88
2023-05-23T04:59:17.882Z,12.32
2023-05-23T05:01:44.807Z,11.30
2023-05-23T05:04:13.009Z,12.50
2023-05-23T05:06:41.319Z,11.85
2023-05-23T05:09:09.210Z,12.65
2023-05-23T05:11:35.985Z,12.77
2023-05-23T05:14:03.290Z,12.45
2023-05-23T05:16:30.767Z,13.27
2023-05-23T05:18:57.732Z,13.05
2023-05-23T05:21:24.479Z,14.15
2023-05-23T05:23:51.525Z,14.32
2023-05-23T05:26:18.478Z,13.55
2023-05-23T05:28:45.278Z,13.77
2023-05-23T05:31:15.290Z,14.85
2023-05-23T05:33:45.766Z,14.82
2023-05-23T05:36:14.454Z,13.27
2023-05-23T05:38:41.774Z,13.32
2023-05-23T05:41:09.415Z,13.05
2023-05-23T05:43:39.978Z,12.18
2023-05-23T05:46:06.770Z,12.63
2023-05-23T05:48:34.173Z,12.63
2023-05-23T05:51:05.454Z,13.38
2023-05-23T05:53:33.717Z,13.20
2023-05-23T05:56:02.724Z,14.32
2023-05-23T05:58:30.741Z,12.82
2023-05-23T06:01:03.646Z,13.02
2023-05-23T06:03:30.603Z,12.40
2023-05-23T06:05:58.266Z,14.15
2023-05-23T06:08:25.350Z,13.50
2023-05-23T06:10:52.214Z,13.48
2023-05-23T06:13:18.949Z,12.43
2023-05-23T06:15:51.097Z,13.13
2023-05-23T06:18:17.886Z,13.63
2023-05-23T06:20:45.038Z,12.68
2023-05-23T06:23:15.461Z,12.82
2023-05-23T06:25:42.536Z,13.75
2023-05-23T06:28:09.308Z,13.70
2023-05-23T06:30:38.027Z,13.40
2023-05-23T06:33:05.352Z,12.32
2023-05-23T06:35:32.152Z,12.55
2023-05-23T06:38:01.134Z,12.38
2023-05-23T06:40:27.908Z,13.35
2023-05-23T06:42:55.731Z,13.52
2023-05-23T06:45:38.929Z,14.40
2023-05-23T06:48:05.940Z,13.10
2023-05-23T06:50:34.745Z,12.73
2023-05-23T06:53:01.684Z,11.88
2023-05-23T06:55:28.463Z,11.45
2023-05-23T06:57:57.454Z,10.60
2023-05-23T07:00:24.747Z,10.75
2023-05-23T07:03:07.073Z,10.68
2023-05-23T07:05:34.488Z,11.02
2023-05-23T07:08:01.642Z,12.48
2023-05-23T07:10:28.512Z,14.07
2023-05-23T07:13:02.275Z,13.05
2023-05-23T07:15:29.793Z,12.88
2023-05-23T07:18:06.111Z,13.18
2023-05-23T07:20:34.099Z,13.57
2023-05-23T07:23:09.702Z,13.77
2023-05-23T07:25:40.336Z,14.63
2023-05-23T07:28:15.643Z,13.38
2023-05-23T07:30:42.998Z,14.43
2023-05-23T07:33:09.845Z,14.68
2023-05-23T07:35:37.543Z,15.00
2023-05-23T07:38:05.359Z,16.30
2023-05-23T07:40:32.267Z,18.23
2023-05-23T07:43:00.149Z,17.77
2023-05-23T07:45:26.957Z,18.70
2023-05-23T07:47:54.066Z,18.75
2023-05-23T07:50:20.820Z,19.73
2023-05-23T07:52:51.235Z,19.13
2023-05-23T07:55:24.317Z,19.05
2023-05-23T07:57:56.399Z,20.30
2023-05-23T08:00:24.628Z,19.20
2023-05-23T08:07:57.826Z,20.27
2023-05-23T08:10:28.177Z,19.67
2023-05-23T08:13:00.518Z,20.05
2023-05-23T08:15:31.825Z,20.95
2023-05-23T08:18:07.643Z,20.77
2023-05-23T08:20:34.427Z,20.63
2023-05-23T08:23:01.929Z,23.42
2023-05-23T08:25:32.380Z,22.10
2023-05-23T08:28:01.115Z,23.20
2023-05-23T08:30:42.789Z,24.05
2023-05-23T08:33:09.841Z,24.98
2023-05-23T08:35:38.799Z,25.20
2023-05-23T08:38:09.661Z,26.15
2023-05-23T08:40:48.123Z,25.13
2023-05-23T08:43:15.143Z,26.05
2023-05-23T08:45:42.554Z,27.77
2023-05-23T08:48:10.191Z,25.45
2023-05-23T08:50:44.210Z,25.92
2023-05-23T08:53:20.129Z,26.55
2023-05-23T08:55:55.686Z,26.60
2023-05-23T08:58:29.247Z,27.10
2023-05-23T09:00:57.649Z,26.25
2023-05-23T09:03:27.411Z,25.48
2023-05-23T09:06:21.965Z,26.38
2023-05-23T09:08:49.184Z,26.00
2023-05-23T09:11:18.550Z,26.30
2023-05-23T09:13:45.836Z,25.13
2023-05-23T09:16:20.079Z,26.50
2023-05-23T09:18:50.973Z,25.40
2023-05-23T09:21:20.779Z,26.85
2023-05-23T09:23:56.084Z,24.98
2023-05-23T09:26:22.924Z,25.90
2023-05-23T09:28:49.790Z,26.42
2023-05-23T09:31:16.575Z,25.88
2023-05-23T09:33:50.245Z,24.40
2023-05-23T09:36:19.234Z,27.40
2023-05-23T09:38:48.872Z,28.20
2023-05-23T09:41:15.779Z,27.92
2023-05-23T09:43:53.391Z,27.50
2023-05-23T09:46:22.050Z,26.88
2023-05-23T09:48:52.047Z,26.88
2023-05-23T09:51:21.612Z,26.48
2023-05-23T09:53:49.131Z,27.90
2023-05-23T09:56:19.711Z,26.60
2023-05-23T09:58:50.787Z,26.63
2023-05-23T10:01:17.922Z,25.88
2023-05-23T10:03:48.879Z,26.77
2023-05-23T10:06:35.141Z,25.75
2023-05-23T10:09:06.108Z,25.13
2023-05-23T10:11:35.670Z,23.27
2023-05-23T10:14:07.601Z,22.52
2023-05-23T10:16:39.860Z,23.27
2023-05-23T10:19:38.582Z,22.40
2023-05-23T10:22:09.364Z,21.58
2023-05-23T10:24:36.776Z,20.90
2023-05-23T10:27:03.854Z,21.08
2023-05-23T10:29:31.373Z,22.13
2023-05-23T10:31:58.599Z,20.90
2023-05-23T10:34:34.616Z,20.58
2023-05-23T10:37:06.303Z,21.65
2023-05-23T10:39:46.457Z,22.70
2023-05-23T10:42:22.597Z,22.38
2023-05-23T10:44:49.348Z,22.02
2023-05-23T10:47:29.183Z,23.38
2023-05-23T10:49:55.998Z,25.40
2023-05-23T10:52:26.548Z,25.90
2023-05-23T10:54:54.744Z,24.23
2023-05-23T10:57:25.472Z,24.80
2023-05-23T10:59:52.305Z,24.02
2023-05-23T11:02:26.275Z,25.45
2023-05-23T11:05:22.715Z,28.38
2023-05-23T11:08:09.790Z,25.50
2023-05-23T11:10:56.143Z,25.35
2023-05-23T11:13:23.399Z,23.67
2023-05-23T11:15:50.828Z,24.67
2023-05-23T11:18:26.507Z,24.25
2023-05-23T11:20:54.659Z,23.73
2023-05-23T11:23:22.170Z,21.77
2023-05-23T11:25:53.829Z,10.77
2023-05-23T11:28:20.954Z,8.75
2023-05-23T11:30:49.610Z,7.97
2023-05-23T11:33:18.207Z,8.27
2023-05-23T11:35:49.601Z,9.43
2023-05-23T11:38:17.324Z,12.85
2023-05-23T11:40:46.334Z,14.82
2023-05-23T11:43:17.780Z,16.63
2023-05-23T11:45:46.759Z,17.77
2023-05-23T11:48:16.459Z,20.38
2023-05-23T11:50:51.315Z,21.27
2023-05-23T11:53:21.542Z,23.40
2023-05-23T11:55:54.361Z,24.45
2023-05-23T11:58:22.922Z,23.15
2023-05-23T12:00:49.896Z,24.08
2023-05-23T12:03:17.033Z,25.67
2023-05-23T12:05:45.475Z,24.80
2023-05-23T12:08:13.824Z,23.73
2023-05-23T12:10:51.294Z,23.42
2023-05-23T12:13:18.422Z,24.25
2023-05-23T12:15:45.249Z,21.83
2023-05-23T12:18:12.863Z,23.65
2023-05-23T12:20:41.931Z,23.75
2023-05-23T12:23:09.103Z,21.55
2023-05-23T12:25:42.516Z,23.92
2023-05-23T12:28:13.614Z,24.65
2023-05-23T12:30:43.491Z,22.73
2023-05-23T12:33:11.933Z,22.83
2023-05-23T12:35:43.025Z,24.02
2023-05-23T12:38:09.920Z,22.17
2023-05-23T12:40:36.648Z,21.80
2023-05-23T12:43:03.383Z,21.85
2023-05-23T12:45:34.990Z,22.65
2023-05-23T12:48:02.453Z,23.30
2023-05-23T12:50:29.768Z,20.63
2023-05-23T12:52:56.952Z,20.48
2023-05-23T12:55:23.674Z,20.20
2023-05-23T12:57:50.868Z,20.20
2023-05-23T13:00:19.312Z,21.02
2023-05-23T13:02:46.472Z,21.30
2023-05-23T13:05:13.305Z,20.95
2023-05-23T13:07:40.060Z,20.45
2023-05-23T13:10:07.380Z,18.63
2023-05-23T13:12:34.721Z,18.40
2023-05-23T13:15:01.521Z,19.40
2023-05-23T13:17:28.412Z,18.15
2023-05-23T13:19:55.139Z,17.60
2023-05-23T13:22:21.827Z,18.42
2023-05-23T13:24:48.527Z,18.98
2023-05-23T13:27:15.249Z,17.75
2023-05-23T13:29:42.232Z,16.48
2023-05-23T13:32:09.069Z,14.95
2023-05-23T13:34:37.472Z,16.70
2023-05-23T13:37:05.559Z,16.92
2023-05-23T13:39:32.280Z,16.48
2023-05-23T13:41:59.066Z,15.27
2023-05-23T13:44:25.848Z,15.20
2023-05-23T13:46:52.785Z,15.52
2023-05-23T13:49:19.561Z,15.25
2023-05-23T13:51:46.409Z,14.18
2023-05-23T13:54:13.835Z,9.25
2023-05-23T13:56:41.275Z,10.68
2023-05-23T13:59:08.002Z,13.43
2023-05-23T14:01:34.797Z,12.68
2023-05-23T14:04:01.650Z,11.75
2023-05-23T14:06:28.346Z,11.52
2023-05-23T14:08:55.839Z,11.60
2023-05-23T14:11:22.583Z,11.43
2023-05-23T14:13:49.291Z,11.02
2023-05-23T14:16:17.076Z,12.20
2023-05-23T14:18:45.185Z,10.52
2023-05-23T14:21:12.046Z,10.40
2023-05-23T14:23:38.812Z,10.32
2023-05-23T14:26:05.832Z,10.20
2023-05-23T14:28:32.518Z,12.75
2023-05-23T14:30:59.291Z,12.43
2023-05-23T14:33:26.268Z,12.65
2023-05-23T14:35:53.196Z,13.40
2023-05-23T14:38:20.172Z,12.57
2023-05-23T14:40:47.286Z,15.07
2023-05-23T14:43:14.157Z,16.55
2023-05-23T14:45:41.147Z,14.55
2023-05-23T14:48:09.405Z,13.43
2023-05-23T14:50:36.497Z,12.95
2023-05-23T14:53:03.346Z,13.93
2023-05-23T14:55:30.051Z,10.18
2023-05-23T14:57:57.786Z,9.30
2023-05-23T15:00:24.965Z,8.00
2023-05-23T15:02:52.136Z,7.90
2023-05-23T15:05:18.928Z,8.55
2023-05-23T15:07:46.266Z,7.97
2023-05-23T15:10:13.012Z,8.05
2023-05-23T15:12:39.720Z,8.40
2023-05-23T15:15:06.929Z,8.75
2023-05-23T15:17:34.158Z,8.70
2023-05-23T15:20:01.883Z,7.88
2023-05-23T15:22:38.666Z,8.35
2023-05-23T15:25:08.229Z,8.05
2023-05-23T15:27:35.181Z,9.00
2023-05-23T15:30:03.212Z,8.25
2023-05-23T15:32:30.088Z,8.20
2023-05-23T15:34:56.875Z,8.93
2023-05-23T15:37:23.583Z,8.63
2023-05-23T15:39:50.311Z,8.65
2023-05-23T15:42:16.992Z,7.55
2023-05-23T15:44:43.750Z,8.35
2023-05-23T15:47:11.214Z,8.05
2023-05-23T15:49:37.946Z,7.80
2023-05-23T15:52:04.897Z,7.90
2023-05-23T15:54:31.611Z,7.40
2023-05-23T15:56:58.317Z,7.60
2023-05-23T15:59:25.010Z,7.65
2023-05-23T16:01:51.782Z,19.58
2023-05-23T16:04:18.633Z,8.10
2023-05-23T16:06:45.440Z,9.30
2023-05-23T16:09:12.186Z,10.00
2023-05-23T16:11:38.955Z,9.93
2023-05-23T16:14:06.391Z,7.82
2023-05-23T16:16:33.185Z,8.75
2023-05-23T16:19:00.218Z,11.65
2023-05-23T16:21:26.999Z,11.85
2023-05-23T16:23:53.756Z,12.80
2023-05-23T16:26:20.926Z,11.85
2023-05-23T16:28:47.706Z,10.77
2023-05-23T16:31:15.657Z,14.90
2023-05-23T16:33:43.315Z,11.48
2023-05-23T16:36:10.041Z,12.13
2023-05-23T16:38:36.746Z,10.05
2023-05-23T16:41:03.617Z,9.52
2023-05-23T16:43:30.357Z,9.65
2023-05-23T16:45:57.139Z,10.55
2023-05-23T16:48:23.957Z,10.35
2023-05-23T16:50:50.760Z,10.60
2023-05-23T16:53:17.556Z,11.98
2023-05-23T16:55:45.924Z,10.75
2023-05-23T16:58:12.724Z,11.57
2023-05-23T17:00:39.616Z,12.23
2023-05-23T17:03:06.686Z,12.27
2023-05-23T17:05:34.382Z,12.45
2023-05-23T17:08:01.579Z,13.13
2023-05-23T17:10:28.470Z,12.43
2023-05-23T17:12:55.216Z,12.98
2023-05-23T17:15:47.787Z,14.15
2023-05-23T17:18:14.539Z,13.40
2023-05-23T17:20:41.243Z,12.82
2023-05-23T17:23:08.013Z,12.95
2023-05-23T17:25:34.724Z,12.38
2023-05-23T17:28:01.413Z,13.50
2023-05-23T17:30:28.285Z,12.20
2023-05-23T17:32:55.070Z,12.48
2023-05-23T17:35:23.316Z,12.25
2023-05-23T17:37:50.379Z,11.80
2023-05-23T17:40:17.556Z,12.02
2023-05-23T17:42:44.889Z,12.15
2023-05-23T17:45:11.865Z,11.05
2023-05-23T17:47:39.228Z,11.30
2023-05-23T17:50:07.222Z,11.73
2023-05-23T17:52:34.534Z,10.23
2023-05-23T17:55:01.769Z,10.82
2023-05-23T17:57:30.497Z,11.50
2023-05-23T17:59:57.666Z,10.45
2023-05-23T18:02:24.472Z,10.55
2023-05-23T18:04:51.540Z,11.05
2023-05-23T18:07:21.285Z,10.40
2023-05-23T18:09:48.610Z,10.00
2023-05-23T18:12:16.441Z,9.70
2023-05-23T18:14:43.652Z,9.50
2023-05-23T18:17:10.575Z,9.18
2023-05-23T18:19:37.550Z,9.15
2023-05-23T18:22:04.542Z,9.82
2023-05-23T18:24:31.283Z,8.93
2023-05-23T18:26:58.343Z,9.70
2023-05-23T18:29:25.087Z,10.95
2023-05-23T18:31:51.791Z,9.73
2023-05-23T18:34:18.684Z,11.18
2023-05-23T18:36:45.669Z,9.95
2023-05-23T18:39:12.571Z,9.90
2023-05-23T18:41:39.788Z,9.02
2023-05-23T18:44:06.484Z,8.07
2023-05-23T18:46:33.283Z,8.15
2023-05-23T18:49:00.150Z,8.90
2023-05-23T18:51:26.849Z,8.02
2023-05-23T18:53:53.569Z,7.53
2023-05-23T18:56:21.643Z,8.70
2023-05-23T18:58:49.891Z,8.27
2023-05-23T19:01:16.943Z,7.47
2023-05-23T19:03:45.678Z,6.95
2023-05-23T19:06:12.529Z,7.80
2023-05-23T19:08:40.884Z,7.93
2023-05-23T19:11:07.717Z,7.53
2023-05-23T19:13:34.552Z,7.22
2023-05-23T19:16:01.934Z,7.75
2023-05-23T19:18:28.740Z,7.55
2023-05-23T19:20:56.451Z,7.82
2023-05-23T19:23:23.238Z,7.45
2023-05-23T19:25:49.949Z,7.18
2023-05-23T19:28:17.005Z,6.90
2023-05-23T19:30:44.393Z,7.53
2023-05-23T19:33:11.494Z,7.20
2023-05-23T19:35:38.487Z,7.30
2023-05-23T19:38:05.742Z,6.97
2023-05-23T19:40:32.463Z,7.13
2023-05-23T19:42:59.172Z,6.55
2023-05-23T19:45:25.966Z,7.32
2023-05-23T19:47:52.667Z,6.47
2023-05-23T19:50:19.497Z,6.68
2023-05-23T19:52:46.202Z,8.07
2023-05-23T19:55:14.197Z,7.43
2023-05-23T19:57:41.911Z,7.35
2023-05-23T20:00:10.458Z,7.18
2023-05-23T20:02:37.369Z,8.02
2023-05-23T20:05:04.389Z,7.90
2023-05-23T20:07:31.237Z,7.75
2023-05-23T20:09:58.067Z,7.30
2023-05-23T20:12:25.084Z,7.50
2023-05-23T20:14:51.809Z,7.15
2023-05-23T20:17:18.586Z,7.47
2023-05-23T20:19:45.309Z,7.20
2023-05-23T20:22:12.017Z,7.88
2023-05-23T20:24:38.764Z,7.10
2023-05-23T20:27:06.726Z,7.43
2023-05-23T20:29:34.951Z,8.18
2023-05-23T20:32:02.187Z,8.02
2023-05-23T20:34:28.926Z,7.28
2023-05-23T20:36:55.821Z,7.68
2023-05-23T20:39:23.968Z,8.35
2023-05-23T20:41:50.767Z,7.00
2023-05-23T20:44:20.499Z,7.57
2023-05-23T20:46:47.538Z,6.47
2023-05-23T20:49:15.689Z,7.28
2023-05-23T20:51:43.280Z,7.68
2023-05-23T20:54:10.038Z,7.25
2023-05-23T20:56:36.860Z,8.05
2023-05-23T20:59:03.566Z,6.93
2023-05-23T21:01:30.433Z,6.75
2023-05-23T21:03:57.261Z,7.43
2023-05-23T21:06:23.949Z,6.88
2023-05-23T21:08:50.686Z,7.20
2023-05-23T21:11:17.377Z,7.88
2023-05-23T21:13:44.637Z,8.68
2023-05-23T21:16:14.301Z,8.10
2023-05-23T21:18:41.090Z,7.53
2023-05-23T21:21:07.832Z,7.22
2023-05-23T21:23:34.565Z,7.70
2023-05-23T21:26:01.341Z,7.95
2023-05-23T21:28:28.140Z,8.30
2023-05-23T21:30:55.382Z,8.05
2023-05-23T21:33:22.310Z,8.32
2023-05-23T21:35:49.263Z,8.23
2023-05-23T21:38:16.044Z,8.63
2023-05-23T21:40:43.002Z,7.65
2023-05-23T21:43:09.915Z,7.50
2023-05-23T21:45:36.613Z,7.32
2023-05-23T21:48:03.408Z,6.65
2023-05-23T21:50:30.265Z,7.22
2023-05-23T21:52:56.987Z,7.70
2023-05-23T21:55:23.882Z,7.50
2023-05-23T21:57:50.738Z,6.70
2023-05-23T22:00:19.705Z,7.57
2023-05-23T22:02:47.290Z,7.90
2023-05-23T22:05:14.170Z,7.55
2023-05-23T22:07:40.923Z,7.80
2023-05-23T22:10:08.161Z,7.57
2023-05-23T22:12:34.920Z,7.30
2023-05-23T22:15:01.667Z,6.88
2023-05-23T22:17:29.577Z,6.97
2023-05-23T22:19:57.987Z,7.13
2023-05-23T22:22:24.707Z,7.28
2023-05-23T22:24:51.798Z,6.90
2023-05-23T22:27:18.588Z,6.60
2023-05-23T22:29:45.452Z,6.80
2023-05-23T22:32:12.182Z,6.18
2023-05-23T22:34:38.918Z,6.85
2023-05-23T22:37:05.706Z,5.50
2023-05-23T22:39:32.465Z,6.28
2023-05-23T22:41:59.219Z,6.28
2023-05-23T22:44:26.173Z,6.25
2023-05-23T22:46:52.961Z,6.13
2023-05-23T22:49:22.211Z,5.70
2023-05-23T22:51:48.987Z,6.07
2023-05-23T22:54:15.691Z,5.90
2023-05-23T22:56:42.541Z,6.38
2023-05-23T22:59:09.331Z,5.47
2023-05-23T23:01:36.412Z,5.68
2023-05-23T23:04:03.216Z,6.13
2023-05-23T23:06:29.962Z,5.75
2023-05-23T23:08:56.769Z,5.70
2023-05-23T23:11:23.518Z,5.95
2023-05-23T23:13:50.293Z,5.30
2023-05-23T23:16:19.439Z,5.70
2023-05-23T23:18:47.083Z,5.78
2023-05-23T23:21:13.871Z,6.25
2023-05-23T23:23:40.880Z,5.90
2023-05-23T23:26:07.635Z,4.95
2023-05-23T23:28:34.417Z,5.90
2023-05-23T23:31:01.244Z,5.82
2023-05-23T23:33:28.100Z,4.90
2023-05-23T23:35:54.881Z,5.20
2023-05-23T23:38:21.631Z,5.43
2023-05-23T23:40:48.349Z,5.30
2023-05-23T23:43:15.166Z,6.03
2023-05-23T23:45:41.971Z,5.38
2023-05-23T23:48:08.805Z,4.88
2023-05-23T23:50:35.718Z,5.00
2023-05-23T23:53:02.432Z,5.82
2023-05-23T23:55:29.131Z,5.80
2023-05-23T23:57:56.109Z,5.63
